Terminal Aerodrome Forecast
Issued by NWS Greer, SC

Home | Current Version | Previous Version | Text Only | Print | Product List | Glossary On
Versions: 1 2 3 4 5 6 7 8 9 10 11 12 13 14 15 16 17
000
FTUS42 KGSP 212300
TAFGSP
TAF
KGSP 212337Z 2200/2224 36003KT P6SM FEW070 BKN250
     FM220700 29003KT P6SM FEW100 SCT250
     FM221300 36004KT P6SM FEW120 SCT250
     FM221800 25005KT P6SM FEW070 SCT250=

USA.gov is the U.S. government's official web portal to all federal, state and local government web resources and services.